Time;durP1;ratioP1;P1;durP2;ratioP2;P2;SDS_P1;SDS_P2;PMS_P1;PMS_P2;Temp;Humidity;BMP_temperature;BMP_pressure;BME280_temperature;BME280_humidity;BME280_pressure;Samples;Min_cycle;Max_cycle;Signal;HPM_P1;HPM_P2
2023/05/12 00:00:18;;;;;;;7.03;4.90;;;;;;;;;;5095474;28;20122;-63
2023/05/12 00:02:44;;;;;;;6.50;4.63;;;;;;;;;;5097449;28;20266;-63
2023/05/12 00:05:10;;;;;;;10.52;4.35;;;;;;;;;;5092494;28;20135;-63
2023/05/12 00:07:36;;;;;;;6.20;4.05;;;;;;;;;;5099902;28;20047;-62
2023/05/12 00:10:03;;;;;;;5.55;3.83;;;;;;;;;;5107584;27;20364;-62
2023/05/12 00:12:29;;;;;;;10.45;4.78;;;;;;;;;;5105141;28;20058;-62
2023/05/12 00:14:55;;;;;;;5.55;3.40;;;;;;;;;;5105820;27;20093;-62
2023/05/12 00:17:21;;;;;;;7.35;3.75;;;;;;;;;;5111273;28;20043;-64
2023/05/12 00:19:47;;;;;;;5.55;3.35;;;;;;;;;;5100842;28;20122;-62
2023/05/12 00:22:15;;;;;;;8.05;3.95;;;;;;;;;;5103935;28;20071;-62
2023/05/12 00:24:41;;;;;;;6.05;4.13;;;;;;;;;;5096278;28;20040;-62
2023/05/12 00:27:08;;;;;;;8.15;4.93;;;;;;;;;;5095669;28;20108;-62
2023/05/12 00:29:35;;;;;;;9.88;3.50;;;;;;;;;;5109298;27;20055;-63
2023/05/12 00:32:01;;;;;;;6.15;3.90;;;;;;;;;;5104333;28;20043;-62
2023/05/12 00:34:28;;;;;;;7.25;3.72;;;;;;;;;;5101651;27;20502;-63
2023/05/12 00:36:54;;;;;;;5.80;3.80;;;;;;;;;;5110968;28;20197;-63
2023/05/12 00:39:20;;;;;;;8.30;4.07;;;;;;;;;;5094167;28;20071;-63
2023/05/12 00:41:48;;;;;;;7.43;5.32;;;;;;;;;;5100474;27;20507;-63
2023/05/12 00:44:17;;;;;;;11.07;5.68;;;;;;;;;;5101677;27;20071;-62
2023/05/12 00:46:43;;;;;;;7.25;5.25;;;;;;;;;;5111586;28;20051;-63
2023/05/12 00:49:09;;;;;;;9.52;6.30;;;;;;;;;;5117466;27;20527;-62
2023/05/12 00:51:36;;;;;;;8.82;5.70;;;;;;;;;;5114741;27;20123;-62
2023/05/12 00:54:02;;;;;;;12.23;8.85;;;;;;;;;;5098294;28;20036;-63
2023/05/12 00:56:28;;;;;;;9.63;6.53;;;;;;;;;;5103033;28;20777;-63
2023/05/12 00:58:55;;;;;;;13.05;7.05;;;;;;;;;;5117561;27;20036;-63
2023/05/12 01:01:21;;;;;;;13.13;7.60;;;;;;;;;;5105514;27;20056;-63
2023/05/12 01:03:47;;;;;;;9.68;7.25;;;;;;;;;;5092848;28;20040;-62
2023/05/12 01:06:19;;;;;;;12.50;7.60;;;;;;;;;;5092943;28;20040;-62
2023/05/12 01:08:45;;;;;;;16.48;8.23;;;;;;;;;;5093773;28;20482;-62
2023/05/12 01:11:13;;;;;;;15.60;8.10;;;;;;;;;;5078056;28;20443;-63
2023/05/12 01:13:40;;;;;;;14.05;9.80;;;;;;;;;;5095534;28;20052;-62
2023/05/12 01:16:08;;;;;;;13.02;8.73;;;;;;;;;;5104019;28;20039;-63
2023/05/12 01:18:38;;;;;;;13.73;7.88;;;;;;;;;;5097025;28;20047;-62
2023/05/12 01:21:04;;;;;;;14.73;8.35;;;;;;;;;;5091113;28;20051;-62
2023/05/12 01:23:37;;;;;;;15.52;8.43;;;;;;;;;;5090121;28;20048;-62
2023/05/12 01:26:07;;;;;;;18.38;9.63;;;;;;;;;;5093503;28;20032;-63
2023/05/12 01:28:34;;;;;;;19.70;9.85;;;;;;;;;;5090870;28;20044;-62
2023/05/12 01:31:00;;;;;;;20.23;10.48;;;;;;;;;;5101382;28;20051;-62
2023/05/12 01:33:27;;;;;;;18.70;10.23;;;;;;;;;;5090486;28;20108;-63
2023/05/12 01:35:53;;;;;;;20.25;11.52;;;;;;;;;;5088975;28;20040;-62
2023/05/12 01:38:20;;;;;;;16.50;10.88;;;;;;;;;;5088859;28;20036;-62
2023/05/12 01:40:46;;;;;;;21.83;11.73;;;;;;;;;;5090417;28;20047;-62
2023/05/12 01:43:12;;;;;;;20.00;11.45;;;;;;;;;;5089457;28;20109;-62
2023/05/12 01:45:38;;;;;;;19.38;12.80;;;;;;;;;;5090343;28;20044;-62
2023/05/12 01:48:04;;;;;;;22.17;13.85;;;;;;;;;;5090020;28;20059;-62
2023/05/12 01:50:30;;;;;;;23.08;13.15;;;;;;;;;;5097344;28;20040;-62
2023/05/12 01:52:56;;;;;;;19.70;13.93;;;;;;;;;;5098889;28;20113;-62
2023/05/12 01:55:22;;;;;;;21.98;13.60;;;;;;;;;;5093507;28;20169;-62
2023/05/12 01:57:49;;;;;;;23.85;13.70;;;;;;;;;;5080422;28;20511;-62
2023/05/12 02:00:15;;;;;;;18.88;12.57;;;;;;;;;;5088279;28;20078;-62
2023/05/12 02:02:41;;;;;;;21.42;12.68;;;;;;;;;;5090162;28;20047;-62
2023/05/12 02:05:08;;;;;;;24.08;11.82;;;;;;;;;;5088774;28;20087;-62
2023/05/12 02:07:34;;;;;;;18.15;13.02;;;;;;;;;;5090290;28;20070;-62
2023/05/12 02:10:00;;;;;;;21.80;12.57;;;;;;;;;;5089038;28;20059;-62
2023/05/12 02:12:26;;;;;;;26.30;13.50;;;;;;;;;;5087848;28;20036;-62
2023/05/12 02:14:52;;;;;;;23.38;12.85;;;;;;;;;;5098881;28;20090;-62
2023/05/12 02:17:18;;;;;;;20.60;12.00;;;;;;;;;;5105137;28;20410;-62
2023/05/12 02:19:44;;;;;;;24.60;12.65;;;;;;;;;;5102687;28;20127;-62
2023/05/12 02:22:11;;;;;;;19.85;11.73;;;;;;;;;;5088315;28;20113;-63
2023/05/12 02:24:37;;;;;;;20.30;12.30;;;;;;;;;;5098928;28;20040;-62
2023/05/12 02:27:03;;;;;;;25.05;14.60;;;;;;;;;;5097957;28;20036;-62
2023/05/12 02:29:29;;;;;;;17.75;12.77;;;;;;;;;;5094317;28;20043;-62
2023/05/12 02:31:55;;;;;;;23.33;13.35;;;;;;;;;;5101459;28;20122;-64
2023/05/12 02:34:21;;;;;;;24.48;13.93;;;;;;;;;;5089358;28;20495;-62
2023/05/12 02:36:47;;;;;;;22.92;13.75;;;;;;;;;;5089308;28;20043;-62
2023/05/12 02:39:14;;;;;;;31.00;14.93;;;;;;;;;;5088940;28;20474;-62
2023/05/12 02:41:40;;;;;;;27.83;14.73;;;;;;;;;;5070393;28;20040;-63
2023/05/12 02:44:06;;;;;;;28.98;14.88;;;;;;;;;;5088115;28;20051;-62
2023/05/12 02:46:32;;;;;;;32.95;16.50;;;;;;;;;;5089234;28;20531;-62
2023/05/12 02:48:58;;;;;;;28.58;14.07;;;;;;;;;;5106304;28;20481;-63
2023/05/12 02:51:24;;;;;;;23.98;14.93;;;;;;;;;;5097579;28;20039;-62
2023/05/12 02:53:50;;;;;;;30.65;15.48;;;;;;;;;;5096812;28;20043;-62
2023/05/12 02:56:17;;;;;;;23.83;14.82;;;;;;;;;;5096255;28;20047;-63
2023/05/12 02:58:43;;;;;;;26.23;17.02;;;;;;;;;;5090375;28;20473;-62
2023/05/12 03:01:10;;;;;;;29.58;16.13;;;;;;;;;;5093139;28;20335;-62
2023/05/12 03:03:36;;;;;;;32.25;15.50;;;;;;;;;;5096829;28;20044;-62
2023/05/12 03:06:03;;;;;;;26.52;16.25;;;;;;;;;;5094582;28;20032;-62
2023/05/12 03:08:29;;;;;;;35.35;18.83;;;;;;;;;;5087899;28;20069;-63
2023/05/12 03:10:55;;;;;;;37.15;18.88;;;;;;;;;;5088696;28;20091;-63
2023/05/12 03:13:24;;;;;;;28.30;16.98;;;;;;;;;;5090625;28;20047;-62
2023/05/12 03:15:50;;;;;;;33.63;18.73;;;;;;;;;;5091654;28;20123;-62
2023/05/12 03:18:16;;;;;;;33.80;18.30;;;;;;;;;;5094329;28;20039;-62
2023/05/12 03:20:42;;;;;;;29.50;17.48;;;;;;;;;;5088924;28;20482;-62
2023/05/12 03:23:09;;;;;;;29.55;19.55;;;;;;;;;;5092235;28;20366;-62
2023/05/12 03:25:35;;;;;;;27.58;18.25;;;;;;;;;;5094907;28;20037;-62
2023/05/12 03:28:02;;;;;;;28.60;17.52;;;;;;;;;;5086253;28;20140;-63
2023/05/12 03:30:28;;;;;;;30.88;18.02;;;;;;;;;;5088420;28;20043;-63
2023/05/12 03:32:55;;;;;;;27.70;18.25;;;;;;;;;;5088159;28;20496;-62
2023/05/12 03:35:21;;;;;;;32.65;19.52;;;;;;;;;;5097864;28;20043;-62
2023/05/12 03:37:47;;;;;;;35.45;19.40;;;;;;;;;;5091295;28;20378;-62
2023/05/12 03:40:17;;;;;;;29.40;18.27;;;;;;;;;;5085402;28;20051;-62
2023/05/12 03:42:44;;;;;;;39.03;20.73;;;;;;;;;;5086504;28;20187;-62
2023/05/12 03:45:10;;;;;;;30.42;19.80;;;;;;;;;;5096395;28;20428;-62
2023/05/12 03:47:39;;;;;;;39.05;21.77;;;;;;;;;;5089553;28;20069;-62
2023/05/12 03:50:06;;;;;;;34.92;20.92;;;;;;;;;;5096133;28;20493;-63
2023/05/12 03:52:32;;;;;;;37.20;21.25;;;;;;;;;;5091756;28;20040;-62
2023/05/12 03:54:58;;;;;;;33.92;21.58;;;;;;;;;;5087186;28;20515;-62
2023/05/12 03:57:24;;;;;;;40.55;21.25;;;;;;;;;;5096085;28;20040;-62
2023/05/12 03:59:50;;;;;;;33.67;21.83;;;;;;;;;;5101045;28;20036;-63
2023/05/12 04:02:16;;;;;;;41.33;23.25;;;;;;;;;;5100644;28;20043;-62
2023/05/12 04:04:43;;;;;;;41.88;23.20;;;;;;;;;;5094009;28;20388;-62
2023/05/12 04:07:09;;;;;;;38.42;23.92;;;;;;;;;;5096027;28;20501;-63
2023/05/12 04:09:35;;;;;;;50.88;25.98;;;;;;;;;;5100732;28;20040;-62
2023/05/12 04:12:01;;;;;;;39.08;23.83;;;;;;;;;;5092494;28;20082;-62
2023/05/12 04:14:27;;;;;;;41.92;26.08;;;;;;;;;;5088996;28;20040;-62
2023/05/12 04:16:53;;;;;;;42.40;24.27;;;;;;;;;;5092433;28;20074;-62
2023/05/12 04:19:19;;;;;;;45.25;24.35;;;;;;;;;;5088077;28;20044;-62
2023/05/12 04:21:45;;;;;;;49.13;26.05;;;;;;;;;;5092537;28;20113;-62
2023/05/12 04:24:12;;;;;;;43.28;26.10;;;;;;;;;;5096631;28;20048;-62
2023/05/12 04:26:38;;;;;;;50.55;23.88;;;;;;;;;;5086803;28;20535;-62
2023/05/12 04:29:04;;;;;;;40.15;23.77;;;;;;;;;;5087166;28;20145;-63
2023/05/12 04:31:30;;;;;;;45.40;26.90;;;;;;;;;;5087653;28;20040;-62
2023/05/12 04:33:56;;;;;;;45.90;26.27;;;;;;;;;;5088288;28;20044;-62
2023/05/12 04:36:22;;;;;;;38.80;22.98;;;;;;;;;;5093790;28;20107;-63
2023/05/12 04:38:49;;;;;;;42.38;24.95;;;;;;;;;;5102235;28;20048;-63
2023/05/12 04:41:15;;;;;;;46.28;23.48;;;;;;;;;;5090244;28;20040;-63
2023/05/12 04:43:41;;;;;;;45.47;25.58;;;;;;;;;;5094095;28;20095;-63
2023/05/12 04:46:07;;;;;;;51.25;27.63;;;;;;;;;;5094972;28;20047;-63
2023/05/12 04:48:33;;;;;;;40.22;23.92;;;;;;;;;;5096910;28;20409;-63
2023/05/12 04:50:59;;;;;;;45.38;25.95;;;;;;;;;;5102930;28;20103;-63
2023/05/12 04:53:26;;;;;;;47.70;27.73;;;;;;;;;;5103850;28;20043;-62
2023/05/12 04:55:53;;;;;;;46.35;26.15;;;;;;;;;;5105398;27;20046;-63
2023/05/12 04:58:19;;;;;;;42.38;24.10;;;;;;;;;;5102393;28;20052;-63
2023/05/12 05:00:45;;;;;;;45.90;25.52;;;;;;;;;;5100872;28;20047;-63
2023/05/12 05:03:11;;;;;;;44.65;25.77;;;;;;;;;;5098073;28;20063;-62
2023/05/12 05:05:38;;;;;;;44.28;24.13;;;;;;;;;;5100895;28;20482;-63
2023/05/12 05:08:04;;;;;;;49.15;28.08;;;;;;;;;;5096488;28;20067;-63
2023/05/12 05:10:30;;;;;;;44.58;23.63;;;;;;;;;;5105707;28;20184;-63
2023/05/12 05:12:56;;;;;;;41.70;26.95;;;;;;;;;;5093826;28;20043;-63
2023/05/12 05:15:22;;;;;;;46.40;25.48;;;;;;;;;;5096800;28;20123;-63
2023/05/12 05:17:48;;;;;;;42.92;25.15;;;;;;;;;;5100606;28;20433;-63
2023/05/12 05:20:15;;;;;;;41.60;24.30;;;;;;;;;;5097290;28;20043;-63
2023/05/12 05:22:41;;;;;;;46.13;26.83;;;;;;;;;;5104533;28;20430;-63
2023/05/12 05:25:08;;;;;;;42.70;24.95;;;;;;;;;;5101482;28;20052;-63
2023/05/12 05:27:34;;;;;;;48.13;25.95;;;;;;;;;;5091972;28;20638;-63
2023/05/12 05:30:00;;;;;;;41.22;24.08;;;;;;;;;;5101806;28;20077;-63
2023/05/12 05:32:26;;;;;;;49.88;27.02;;;;;;;;;;5095533;28;20078;-63
2023/05/12 05:34:52;;;;;;;42.00;24.10;;;;;;;;;;5093080;28;20042;-63
2023/05/12 05:37:19;;;;;;;59.28;28.40;;;;;;;;;;5092169;28;20043;-63
2023/05/12 05:39:45;;;;;;;36.95;24.63;;;;;;;;;;5092869;28;20040;-63
2023/05/12 05:42:11;;;;;;;45.42;26.55;;;;;;;;;;5091702;28;20028;-63
2023/05/12 05:44:37;;;;;;;35.97;24.45;;;;;;;;;;5099909;28;20035;-63
2023/05/12 05:47:03;;;;;;;51.78;25.60;;;;;;;;;;5106601;28;20035;-63
2023/05/12 05:49:29;;;;;;;38.53;24.00;;;;;;;;;;5094375;28;20119;-63
2023/05/12 05:51:56;;;;;;;46.25;26.65;;;;;;;;;;5104128;28;20062;-63
2023/05/12 05:54:25;;;;;;;43.72;25.33;;;;;;;;;;5089923;28;20032;-63
2023/05/12 05:56:51;;;;;;;44.72;25.63;;;;;;;;;;5094354;28;20032;-63
2023/05/12 05:59:17;;;;;;;42.08;24.70;;;;;;;;;;5095823;28;20113;-63
2023/05/12 06:01:44;;;;;;;37.65;23.50;;;;;;;;;;5101925;28;20031;-63
2023/05/12 06:04:10;;;;;;;44.25;23.83;;;;;;;;;;5099700;28;20050;-63
2023/05/12 06:06:36;;;;;;;40.95;25.55;;;;;;;;;;5100841;28;20040;-63
2023/05/12 06:09:02;;;;;;;47.50;26.20;;;;;;;;;;5099329;27;20068;-63
2023/05/12 06:11:29;;;;;;;39.53;24.38;;;;;;;;;;5097678;28;20055;-62
2023/05/12 06:13:55;;;;;;;39.60;23.50;;;;;;;;;;5100846;28;20054;-63
2023/05/12 06:16:21;;;;;;;38.92;24.20;;;;;;;;;;5089807;28;20615;-63
2023/05/12 06:18:47;;;;;;;32.47;22.95;;;;;;;;;;5091764;28;20036;-63
2023/05/12 06:21:13;;;;;;;42.13;22.80;;;;;;;;;;5088850;28;20116;-63
2023/05/12 06:23:39;;;;;;;42.50;22.77;;;;;;;;;;5092597;28;20445;-63
2023/05/12 06:26:06;;;;;;;38.72;23.67;;;;;;;;;;5091772;28;20028;-63
2023/05/12 06:28:32;;;;;;;46.03;24.27;;;11.60;99.90;;;;;;5100645;28;20047;-63
2023/05/12 06:30:58;;;;;;;33.90;22.33;;;12.90;99.90;;;;;;5092998;28;20591;-63
2023/05/12 06:33:24;;;;;;;38.97;23.88;;;12.80;99.90;;;;;;5089573;28;20093;-63
2023/05/12 06:35:50;;;;;;;44.15;24.65;;;12.90;99.90;;;;;;5090557;28;20055;-63
2023/05/12 06:38:16;;;;;;;40.80;23.05;;;12.90;99.90;;;;;;5089528;28;20135;-63
2023/05/12 06:40:42;;;;;;;34.35;22.45;;;12.90;99.90;;;;;;5068648;28;20036;-63
2023/05/12 06:43:08;;;;;;;40.75;25.73;;;12.90;99.90;;;;;;5088516;28;20038;-63
2023/05/12 06:45:34;;;;;;;37.67;24.17;;;12.90;99.90;;;;;;5088977;28;20262;-63
2023/05/12 06:48:00;;;;;;;38.05;23.80;;;13.00;99.90;;;;;;5089551;28;20036;-63
2023/05/12 06:50:26;;;;;;;33.45;23.05;;;13.00;99.90;;;;;;5089895;28;20055;-63
2023/05/12 06:52:52;;;;;;;38.05;23.50;;;13.00;99.90;;;;;;5092746;28;20481;-63
2023/05/12 06:55:19;;;;;;;32.00;23.17;;;13.10;99.90;;;;;;5095077;28;20127;-63
2023/05/12 06:57:44;;;;;;;38.53;20.48;;;13.10;99.90;;;;;;5082626;28;20078;-63
2023/05/12 07:00:11;;;;;;;37.08;24.17;;;13.10;99.90;;;;;;5091903;27;20068;-63
2023/05/12 07:02:37;;;;;;;33.65;23.52;;;13.10;99.90;;;;;;5099355;28;20122;-63
2023/05/12 07:05:03;;;;;;;29.27;20.98;;;13.20;99.90;;;;;;5094182;28;20124;-63
2023/05/12 07:07:30;;;;;;;39.28;21.80;;;13.20;99.90;;;;;;5086899;28;20489;-63
2023/05/12 07:09:56;;;;;;;34.72;21.25;;;13.20;99.90;;;;;;5090511;28;20537;-63
2023/05/12 07:12:21;;;;;;;41.65;23.85;;;13.30;99.90;;;;;;5094527;28;20513;-63
2023/05/12 07:14:47;;;;;;;30.35;20.73;;;;;;;;;;5089659;28;20123;-63
2023/05/12 07:17:14;;;;;;;33.67;21.90;;;;;;;;;;5096259;28;20355;-63
2023/05/12 07:19:40;;;;;;;33.85;22.60;;;;;;;;;;5086296;28;20047;-62
2023/05/12 07:22:06;;;;;;;36.92;21.67;;;;;;;;;;5084767;28;20120;-62
2023/05/12 07:24:32;;;;;;;35.17;22.33;;;;;;;;;;5096559;28;20437;-62
2023/05/12 07:26:58;;;;;;;33.63;22.27;;;;;;;;;;5095696;28;20036;-62
2023/05/12 07:29:24;;;;;;;31.60;21.90;;;;;;;;;;5088692;28;20093;-62
2023/05/12 07:31:50;;;;;;;29.00;20.00;;;;;;;;;;5085802;28;20032;-62
2023/05/12 07:34:17;;;;;;;29.05;20.55;;;;;;;;;;5092287;28;20044;-62
2023/05/12 07:36:43;;;;;;;30.40;23.35;;;;;;;;;;5085922;28;20535;-62
2023/05/12 07:39:09;;;;;;;34.92;23.75;;;;;;;;;;5093508;28;20039;-62
2023/05/12 07:41:35;;;;;;;32.13;22.90;;;;;;;;;;5099529;28;20047;-62
2023/05/12 07:44:01;;;;;;;31.52;21.38;;;;;;;;;;5099420;28;20057;-62
2023/05/12 07:46:27;;;;;;;34.50;21.63;;;;;;;;;;5101422;27;20139;-62
2023/05/12 07:48:53;;;;;;;33.70;23.23;;;;;;;;;;5094538;28;20039;-62
2023/05/12 07:51:20;;;;;;;38.85;22.23;;;;;;;;;;5101948;28;20127;-62
2023/05/12 07:53:46;;;;;;;31.23;21.88;;;;;;;;;;5099705;28;20048;-63
2023/05/12 07:56:12;;;;;;;34.33;22.65;;;;;;;;;;5093314;28;20035;-62
2023/05/12 07:58:38;;;;;;;35.03;24.98;;;;;;;;;;5091469;28;20396;-62
2023/05/12 08:01:05;;;;;;;33.17;24.92;;;;;;;;;;5094442;28;20039;-62
2023/05/12 08:03:32;;;;;;;43.92;24.88;;;;;;;;;;5090042;28;20498;-62
2023/05/12 08:05:58;;;;;;;33.13;24.83;;;;;;;;;;5085997;28;20055;-62
2023/05/12 08:08:24;;;;;;;35.35;23.75;;;;;;;;;;5083699;28;20072;-62
2023/05/12 08:10:50;;;;;;;32.92;23.33;;;;;;;;;;5085719;28;20084;-63
2023/05/12 08:13:17;;;;;;;35.08;23.45;;;;;;;;;;5088153;28;20108;-62
2023/05/12 08:15:45;;;;;;;34.10;24.58;;;;;;;;;;5085395;28;20121;-62
2023/05/12 08:18:11;;;;;;;33.20;23.42;;;;;;;;;;5092061;28;20142;-63
2023/05/12 08:20:37;;;;;;;34.50;25.20;;;;;;;;;;5106454;28;20474;-62
2023/05/12 08:23:03;;;;;;;35.60;25.75;;;;;;;;;;5096658;28;20031;-62
2023/05/12 08:25:29;;;;;;;41.65;25.58;;;;;;;;;;5093679;28;20468;-63
2023/05/12 08:27:56;;;;;;;37.28;24.80;;;13.30;99.90;;;;;;5097406;28;20040;-63
2023/05/12 08:30:22;;;;;;;35.60;24.98;;;14.60;99.90;;;;;;5097744;28;20040;-63
2023/05/12 08:32:48;;;;;;;35.03;24.70;;;14.60;99.90;;;;;;5099160;28;20115;-62
2023/05/12 08:35:14;;;;;;;33.20;24.85;;;;;;;;;;5092240;28;20044;-63
2023/05/12 08:37:40;;;;;;;37.72;26.23;;;;;;;;;;5092058;28;20051;-63
2023/05/12 08:40:11;;;;;;;32.85;24.75;;;;;;;;;;5091200;28;20508;-62
2023/05/12 08:42:42;;;;;;;40.58;25.67;;;;;;;;;;5090936;28;20040;-63
2023/05/12 08:45:10;;;;;;;30.65;22.40;;;;;;;;;;5091175;28;20043;-62
2023/05/12 08:47:37;;;;;;;34.80;24.98;;;;;;;;;;5091599;28;20063;-63
2023/05/12 08:50:03;;;;;;;31.58;26.05;;;;;;;;;;5094284;28;20126;-63
2023/05/12 08:52:32;;;;;;;29.10;23.33;;;;;;;;;;5096851;28;20050;-63
2023/05/12 08:54:58;;;;;;;31.00;24.50;;;;;;;;;;5104698;28;20052;-63
2023/05/12 08:57:25;;;;;;;33.83;24.67;;;;;;;;;;5091218;28;20146;-63
2023/05/12 08:59:54;;;;;;;30.77;23.75;;;;;;;;;;5089513;28;20047;-63
2023/05/12 09:02:21;;;;;;;31.98;23.38;;;;;;;;;;5096645;28;20051;-63
2023/05/12 09:04:48;;;;;;;35.33;24.23;;;;;;;;;;5097650;28;20039;-63
2023/05/12 09:07:14;;;;;;;25.90;21.35;;;;;;;;;;5091235;28;20044;-64
2023/05/12 09:09:42;;;;;;;28.15;22.77;;;;;;;;;;5090751;28;20109;-64
2023/05/12 09:12:11;;;;;;;32.38;23.38;;;;;;;;;;5100951;28;20076;-63
2023/05/12 09:14:38;;;;;;;26.40;21.10;;;14.70;99.90;;;;;;5100829;28;20038;-63
2023/05/12 09:17:05;;;;;;;28.70;22.83;;;16.20;99.90;;;;;;5099800;28;20031;-63
2023/05/12 09:19:33;;;;;;;26.80;21.05;;;;;;;;;;5096552;28;20403;-63
2023/05/12 09:22:00;;;;;;;27.13;22.38;;;;;;;;;;5105119;28;20536;-63
2023/05/12 09:24:39;;;;;;;28.27;21.45;;;;;;;;;;5090556;28;20602;-63
2023/05/12 09:27:06;;;;;;;29.83;21.30;;;;;;;;;;5093211;28;20508;-63
2023/05/12 09:29:32;;;;;;;29.65;21.33;;;16.30;99.90;;;;;;5085956;28;20219;-63
2023/05/12 09:32:00;;;;;;;25.58;21.48;;;;;;;;;;5101900;28;20100;-63
2023/05/12 09:34:31;;;;;;;24.48;20.05;;;;;;;;;;5096402;28;20036;-63
2023/05/12 09:36:58;;;;;;;27.00;21.08;;;;;;;;;;5099616;28;20409;-63
2023/05/12 09:39:24;;;;;;;24.58;19.75;;;16.70;99.90;;;;;;5093883;28;20493;-63
2023/05/12 09:41:53;;;;;;;20.67;17.55;;;;;;;;;;5076171;28;20034;-63
2023/05/12 09:44:20;;;;;;;24.23;17.05;;;;;;;;;;5093028;28;20516;-63
2023/05/12 09:46:47;;;;;;;23.00;18.35;;;16.90;99.90;;;;;;5090989;28;20036;-63
2023/05/12 09:49:18;;;;;;;23.25;18.50;;;;;;;;;;5102831;28;20184;-63
2023/05/12 09:51:44;;;;;;;26.63;19.27;;;;;;;;;;5104470;28;20075;-63
2023/05/12 09:54:10;;;;;;;25.90;19.38;;;;;;;;;;5088976;28;20123;-63
2023/05/12 09:56:37;;;;;;;24.98;19.00;;;17.10;99.90;;;;;;5088435;28;20043;-63
2023/05/12 09:59:04;;;;;;;26.67;21.05;;;;;;;;;;5089993;28;20047;-62
2023/05/12 10:01:30;;;;;;;21.70;18.98;;;;;;;;;;5088678;28;20051;-63
2023/05/12 10:03:57;;;;;;;24.38;19.55;;;17.40;99.90;;;;;;5090362;28;20642;-63
2023/05/12 10:06:29;;;;;;;26.20;20.35;;;17.60;99.90;;;;;;5089540;28;20028;-63
2023/05/12 10:09:05;;;;;;;21.63;18.02;;;;;;;;;;5102575;28;20504;-63
2023/05/12 10:11:32;;;;;;;19.13;14.80;;;;;;;;;;5089459;28;20083;-63
2023/05/12 10:13:59;;;;;;;19.35;13.27;;;;;;;;;;5091936;28;20047;-63
2023/05/12 10:16:27;;;;;;;16.00;13.48;;;;;;;;;;5090563;28;20545;-63
2023/05/12 10:18:54;;;;;;;18.42;13.82;;;;;;;;;;5089657;28;20051;-63
2023/05/12 10:21:20;;;;;;;14.77;13.18;;;;;;;;;;5091507;28;20051;-63
2023/05/12 10:23:47;;;;;;;16.33;12.88;;;17.70;99.90;;;;;;5100212;28;20505;-63
2023/05/12 10:26:13;;;;;;;14.02;10.68;;;18.30;99.90;;;;;;5087944;28;20028;-63
2023/05/12 10:28:39;;;;;;;15.23;11.73;;;18.30;99.90;;;;;;5088629;28;20496;-63
2023/05/12 10:31:06;;;;;;;18.17;12.15;;;18.30;99.90;;;;;;5089944;28;20093;-62
2023/05/12 10:33:32;;;;;;;16.15;11.93;;;18.40;99.90;;;;;;5089680;28;20119;-63
2023/05/12 10:35:59;;;;;;;23.35;11.40;;;;;;;;;;5097991;28;20048;-63
2023/05/12 10:38:25;;;;;;;18.88;10.38;;;;;;;;;;5103797;28;20050;-62
2023/05/12 10:40:52;;;;;;;16.02;11.13;;;;;;;;;;5095788;28;20080;-62
2023/05/12 10:43:23;;;;;;;13.55;10.98;;;;;;;;;;5097182;28;20162;-62
2023/05/12 10:46:06;;;;;;;14.85;11.00;;;;;;;;;;5097817;28;20032;-62
2023/05/12 10:48:32;;;;;;;14.10;12.75;;;;;;;;;;5097477;28;20032;-63
2023/05/12 10:51:06;;;;;;;14.73;12.18;;;;;;;;;;5103076;28;20108;-62
2023/05/12 10:53:36;;;;;;;13.30;11.43;;;;;;;;;;5097603;28;20083;-63
2023/05/12 10:56:05;;;;;;;14.73;12.65;;;;;;;;;;5098694;28;20040;-62
2023/05/12 10:58:31;;;;;;;13.80;12.02;;;18.50;99.90;;;;;;5097098;28;20065;-62
2023/05/12 11:01:05;;;;;;;13.07;11.05;;;18.90;99.90;;;;;;5104513;28;20451;-62
2023/05/12 11:03:32;;;;;;;13.68;11.55;;;19.00;99.90;;;;;;5098502;28;20035;-62
2023/05/12 11:06:05;;;;;;;13.55;10.98;;;19.00;99.90;;;;;;5097436;28;20597;-63
2023/05/12 11:08:33;;;;;;;12.88;9.15;;;19.00;99.90;;;;;;5086048;28;20044;-62
2023/05/12 11:11:00;;;;;;;11.40;8.80;;;19.10;99.90;;;;;;5089080;28;20116;-63
2023/05/12 11:13:28;;;;;;;11.95;9.50;;;19.20;99.90;;;;;;5094135;28;20592;-63
2023/05/12 11:15:56;;;;;;;12.30;11.07;;;19.20;99.90;;;;;;5097172;28;20123;-62
2023/05/12 11:18:22;;;;;;;12.13;10.50;;;19.30;99.90;;;;;;5094334;28;20047;-62
2023/05/12 11:20:49;;;;;;;13.05;11.52;;;19.30;99.90;;;;;;5096095;28;20040;-62
2023/05/12 11:23:28;;;;;;;13.48;11.40;;;19.30;99.90;;;;;;5081553;28;20039;-63
2023/05/12 11:25:55;;;;;;;11.95;10.38;;;19.30;99.90;;;;;;5094626;28;21283;-63
2023/05/12 11:28:21;;;;;;;13.25;11.73;;;19.30;99.90;;;;;;5096475;28;20039;-63
2023/05/12 11:30:53;;;;;;;12.85;10.38;;;19.30;99.90;;;;;;5094673;28;20048;-71
2023/05/12 11:33:22;;;;;;;14.25;11.35;;;19.40;99.90;;;;;;5097344;28;20043;-70
2023/05/12 11:35:49;;;;;;;14.50;11.57;;;19.50;99.90;;;;;;5091885;28;20482;-71
2023/05/12 11:38:18;;;;;;;11.63;9.43;;;19.50;99.90;;;;;;5087406;28;20067;-70
2023/05/12 11:40:44;;;;;;;10.32;8.45;;;19.60;99.90;;;;;;5088370;28;20060;-71
2023/05/12 11:43:13;;;;;;;13.02;10.35;;;19.60;99.90;;;;;;5095321;28;20549;-71
2023/05/12 11:45:40;;;;;;;11.45;8.43;;;19.70;99.90;;;;;;5086879;28;20035;-71
2023/05/12 11:48:11;;;;;;;9.60;7.03;;;19.60;99.90;;;;;;5086033;28;20040;-71
2023/05/12 11:50:41;;;;;;;11.20;8.15;;;19.70;99.90;;;;;;5091482;28;20046;-71
2023/05/12 11:53:13;;;;;;;10.07;7.90;;;19.80;99.90;;;;;;5095564;28;20074;-70
2023/05/12 11:55:50;;;;;;;8.93;6.53;;;19.80;99.90;;;;;;5088101;28;20040;-71
2023/05/12 11:58:25;;;;;;;6.95;5.72;;;19.90;99.90;;;;;;5087908;28;20069;-71
2023/05/12 12:00:52;;;;;;;7.80;5.30;;;19.90;99.90;;;;;;5091403;28;20101;-70
2023/05/12 12:03:18;;;;;;;9.68;6.82;;;20.00;99.90;;;;;;5084968;28;20162;-71
2023/05/12 12:05:56;;;;;;;11.50;8.88;;;20.00;99.90;;;;;;5090574;28;20277;-71
2023/05/12 12:08:22;;;;;;;9.95;8.90;;;20.10;99.90;;;;;;5101719;28;20119;-70
2023/05/12 12:10:47;;;;;;;10.05;8.55;;;20.10;99.90;;;;;;5094210;28;20138;-71
2023/05/12 12:13:24;;;;;;;11.05;8.50;;;20.10;99.90;;;;;;5092763;28;20109;-70
2023/05/12 12:15:50;;;;;;;11.57;8.88;;;20.20;99.90;;;;;;5097918;28;20039;-70
2023/05/12 12:18:17;;;;;;;9.80;8.20;;;20.20;99.90;;;;;;5098205;28;20122;-70
2023/05/12 12:20:45;;;;;;;12.65;8.65;;;20.30;99.90;;;;;;5093846;28;20371;-70
2023/05/12 12:23:10;;;;;;;11.80;7.78;;;20.30;99.90;;;;;;5094484;28;20035;-70
2023/05/12 12:25:36;;;;;;;9.73;7.63;;;20.30;99.90;;;;;;5097603;28;20028;-71
2023/05/12 12:28:02;;;;;;;11.70;8.82;;;20.40;99.90;;;;;;5089693;28;20223;-71
2023/05/12 12:30:28;;;;;;;11.95;9.70;;;20.50;99.90;;;;;;5091669;28;20433;-71
2023/05/12 12:32:54;;;;;;;10.27;8.80;;;20.50;99.90;;;;;;5097677;28;20048;-70
2023/05/12 12:35:20;;;;;;;12.38;9.38;;;20.60;99.90;;;;;;5087906;28;20305;-70
2023/05/12 12:37:52;;;;;;;10.00;8.50;;;20.60;99.90;;;;;;5095892;28;20206;-71
2023/05/12 12:40:18;;;;;;;11.60;8.77;;;20.60;99.90;;;;;;5040500;28;20050;-70
2023/05/12 12:42:45;;;;;;;11.35;9.23;;;20.60;99.90;;;;;;5091985;28;20048;-69
2023/05/12 12:45:12;;;;;;;14.70;11.02;;;20.70;99.90;;;;;;5096269;28;20032;-69
2023/05/12 12:47:38;;;;;;;11.18;7.40;;;20.70;99.90;;;;;;5100265;28;20068;-68
2023/05/12 12:50:09;;;;;;;10.57;8.25;;;20.70;99.90;;;;;;5098600;28;20568;-68
2023/05/12 12:52:36;;;;;;;9.73;7.50;;;20.70;99.90;;;;;;5094029;28;20120;-68
2023/05/12 12:55:02;;;;;;;8.48;7.20;;;20.70;99.90;;;;;;5092600;28;20046;-70
2023/05/12 12:57:28;;;;;;;9.77;6.78;;;20.70;99.90;;;;;;5096387;28;20048;-69
2023/05/12 12:59:54;;;;;;;11.77;10.13;;;20.80;99.90;;;;;;5091473;28;20393;-69
2023/05/12 13:02:20;;;;;;;15.38;11.63;;;20.90;99.90;;;;;;5099816;28;20512;-68
2023/05/12 13:04:46;;;;;;;15.65;11.75;;;20.90;99.90;;;;;;5102688;28;20492;-69
2023/05/12 13:07:12;;;;;;;12.40;10.45;;;21.00;99.90;;;;;;5102130;28;20036;-68
2023/05/12 13:09:37;;;;;;;10.40;9.30;;;21.00;99.90;;;;;;5088939;28;20046;-69
2023/05/12 13:12:04;;;;;;;11.50;9.77;;;21.10;99.90;;;;;;5105906;28;20138;-69
2023/05/12 13:14:30;;;;;;;12.60;10.25;;;21.10;99.90;;;;;;5111178;28;20100;-68
2023/05/12 13:16:56;;;;;;;15.48;11.15;;;21.10;99.90;;;;;;5107952;28;20039;-68
2023/05/12 13:19:21;;;;;;;12.95;10.52;;;21.10;99.90;;;;;;5095233;28;20040;-68
2023/05/12 13:21:48;;;;;;;12.90;10.75;;;21.00;99.90;;;;;;5107500;28;20040;-68
2023/05/12 13:24:14;;;;;;;13.15;10.63;;;21.10;99.90;;;;;;5113825;28;20118;-68
2023/05/12 13:26:40;;;;;;;13.95;10.50;;;21.10;99.90;;;;;;5098059;28;20173;-68
2023/05/12 13:29:06;;;;;;;13.68;11.40;;;21.10;99.90;;;;;;5066491;28;20036;-68
2023/05/12 13:31:32;;;;;;;17.23;11.68;;;21.00;99.90;;;;;;5076021;28;20520;-69
2023/05/12 13:33:57;;;;;;;20.95;16.77;;;21.00;99.90;;;;;;5104841;28;20032;-68
2023/05/12 13:36:23;;;;;;;14.02;11.95;;;20.80;99.90;;;;;;5111174;28;20039;-68
2023/05/12 13:38:49;;;;;;;13.23;11.93;;;20.80;99.90;;;;;;5107888;28;20050;-68
2023/05/12 13:41:15;;;;;;;14.25;11.63;;;20.70;99.90;;;;;;5104020;27;20039;-68